Dom Feliciano, Brazil
Current Conditions -  °F | °C
As of 12:00 PM on Sunday 23 Nov 2014 (Local Time) from SBPA Reporting Station
Broken Clouds Broken Clouds  
Wind Chill: 77°   Ceiling: 3500
Heat Index: 79°   Visibility: 6mi
Dew Point: 59°   Wind: 2mph
Humidity: 54%   Direction: 150°SSE
Pressure: 29.97"   Gusts: NA
Location:  30.7°S, 52.11°W
Report Text: SBPA 231400Z 15002KT 9999 BKN035 25/15 Q1015
Loading
Personal Weather Stations






























Interactive Weather Map New forecast layout! Learn more

10-Day Weather Forecast

Advertisements
Track Severe Weather on mobile